Time;durP1;ratioP1;P1;durP2;ratioP2;P2;SDS_P1;SDS_P2;PMS_P1;PMS_P2;Temp;Humidity;BMP_temperature;BMP_pressure;BME280_temperature;BME280_humidity;BME280_pressure;Samples;Min_cycle;Max_cycle;Signal;HPM_P1;HPM_P2
2023/08/24 00:01:03;;;;;;;3.78;1.73;;;20.50;99.90;;;;;;5060402;28;20032;-42
2023/08/24 00:03:29;;;;;;;3.20;2.05;;;20.40;99.90;;;;;;5059022;28;20539;-42
2023/08/24 00:05:54;;;;;;;2.20;1.80;;;20.40;99.90;;;;;;5056636;28;20135;-43
2023/08/24 00:08:20;;;;;;;3.35;1.58;;;20.30;99.90;;;;;;5060616;28;20373;-42
2023/08/24 00:10:48;;;;;;;3.63;1.98;;;20.30;99.90;;;;;;5054622;28;20135;-42
2023/08/24 00:13:14;;;;;;;2.60;1.70;;;20.30;99.90;;;;;;5061176;28;20047;-43
2023/08/24 00:15:40;;;;;;;2.47;1.70;;;20.30;99.90;;;;;;5053024;28;20033;-43
2023/08/24 00:18:06;;;;;;;2.63;1.60;;;20.30;99.90;;;;;;5062258;28;20025;-43
2023/08/24 00:20:32;;;;;;;3.70;1.65;;;20.30;99.90;;;;;;5058329;28;20035;-44
2023/08/24 00:23:01;;;;;;;2.67;1.80;;;20.30;99.90;;;;;;5064331;28;20024;-42
2023/08/24 00:25:27;;;;;;;3.67;1.70;;;20.30;99.90;;;;;;5051457;28;20032;-42
2023/08/24 00:27:55;;;;;;;3.10;1.90;;;20.30;99.90;;;;;;5064244;28;20029;-42
2023/08/24 00:30:21;;;;;;;1.80;1.63;;;20.30;99.90;;;;;;5050245;28;20025;-42
2023/08/24 00:32:47;;;;;;;3.97;1.98;;;20.30;99.90;;;;;;5063951;28;20448;-42
2023/08/24 00:35:12;;;;;;;3.85;2.20;;;20.20;99.90;;;;;;5055995;28;20037;-42
2023/08/24 00:37:41;;;;;;;3.45;2.00;;;20.20;99.90;;;;;;5045444;28;20025;-42
2023/08/24 00:40:11;;;;;;;3.00;2.03;;;20.20;99.90;;;;;;5051520;28;20775;-43
2023/08/24 00:42:40;;;;;;;3.95;2.00;;;20.20;99.90;;;;;;5044733;28;20033;-43
2023/08/24 00:45:11;;;;;;;3.10;1.85;;;20.20;99.90;;;;;;5049748;28;20471;-43
2023/08/24 00:47:39;;;;;;;2.17;1.70;;;20.20;99.90;;;;;;5047598;28;20502;-42
2023/08/24 00:50:09;;;;;;;4.70;2.35;;;20.20;99.90;;;;;;5048409;28;20036;-43
2023/08/24 00:52:37;;;;;;;3.53;2.08;;;20.20;99.90;;;;;;5050038;28;20017;-42
2023/08/24 00:55:03;;;;;;;5.03;2.65;;;20.20;99.90;;;;;;5046833;28;20040;-42
2023/08/24 00:57:32;;;;;;;3.03;2.33;;;20.20;99.90;;;;;;5052144;28;20083;-42
2023/08/24 00:59:59;;;;;;;5.90;2.50;;;20.20;99.90;;;;;;5046321;28;20025;-42
2023/08/24 01:02:25;;;;;;;3.20;2.08;;;20.20;99.90;;;;;;5053252;28;20032;-42
2023/08/24 01:04:53;;;;;;;2.95;2.38;;;20.20;99.90;;;;;;5045260;28;20073;-42
2023/08/24 01:07:19;;;;;;;4.25;2.42;;;20.20;99.90;;;;;;5053433;28;20024;-43
2023/08/24 01:09:46;;;;;;;6.25;2.38;;;20.20;99.90;;;;;;5044392;28;20037;-42
2023/08/24 01:12:30;;;;;;;3.85;2.35;;;20.20;99.90;;;;;;5043883;28;20106;-43
2023/08/24 01:15:01;;;;;;;3.72;2.47;;;20.20;99.90;;;;;;5043866;28;20028;-43
2023/08/24 01:17:29;;;;;;;5.40;2.90;;;20.20;99.90;;;;;;5043244;28;20662;-43
2023/08/24 01:19:56;;;;;;;2.58;2.38;;;20.20;99.90;;;;;;5049774;28;20035;-43
2023/08/24 01:22:27;;;;;;;2.85;2.20;;;20.20;99.90;;;;;;5050135;28;20021;-43
2023/08/24 01:25:08;;;;;;;2.80;2.53;;;20.20;99.90;;;;;;5062991;28;20529;-43
2023/08/24 01:27:36;;;;;;;3.33;2.50;;;20.20;99.90;;;;;;5050805;28;20059;-43
2023/08/24 01:30:03;;;;;;;3.03;2.65;;;20.20;99.90;;;;;;5062586;28;20055;-43
2023/08/24 01:32:33;;;;;;;3.63;2.90;;;20.20;99.90;;;;;;5050757;28;20028;-42
2023/08/24 01:35:02;;;;;;;2.78;2.58;;;20.20;99.90;;;;;;5063764;28;20024;-42
2023/08/24 01:37:28;;;;;;;3.33;2.80;;;20.20;99.90;;;;;;5049734;28;20040;-42
2023/08/24 01:40:12;;;;;;;3.70;3.05;;;20.20;99.90;;;;;;5064196;28;20027;-42
2023/08/24 01:42:56;;;;;;;4.07;3.00;;;20.20;99.90;;;;;;5050422;28;20039;-42
2023/08/24 01:45:27;;;;;;;4.95;2.95;;;20.20;99.90;;;;;;5061348;28;20077;-42
2023/08/24 01:47:55;;;;;;;4.88;3.42;;;20.20;99.90;;;;;;5049193;28;20025;-42
2023/08/24 01:50:21;;;;;;;3.92;3.53;;;20.20;99.90;;;;;;5061771;28;20036;-42
2023/08/24 01:52:47;;;;;;;5.05;3.65;;;20.20;99.90;;;;;;5050213;28;20017;-42
2023/08/24 01:55:15;;;;;;;5.15;3.60;;;20.20;99.90;;;;;;5060408;28;20068;-42
2023/08/24 01:57:40;;;;;;;4.85;3.38;;;20.20;99.90;;;;;;5056767;28;20041;-42
2023/08/24 02:00:09;;;;;;;4.47;3.30;;;20.20;99.90;;;;;;5061921;28;20044;-41
2023/08/24 02:02:35;;;;;;;7.72;3.90;;;20.20;99.90;;;;;;5059357;28;20738;-42
2023/08/24 02:05:08;;;;;;;5.07;3.83;;;20.20;99.90;;;;;;5061416;28;20070;-42
2023/08/24 02:07:33;;;;;;;5.70;3.72;;;20.20;99.90;;;;;;5061124;28;20842;-42
2023/08/24 02:09:59;;;;;;;4.57;3.47;;;20.20;99.90;;;;;;5058442;28;20063;-42
2023/08/24 02:12:25;;;;;;;4.82;3.58;;;20.20;99.90;;;;;;5063965;28;20118;-43
2023/08/24 02:14:50;;;;;;;5.50;3.75;;;20.20;99.90;;;;;;5055994;28;20476;-43
2023/08/24 02:17:16;;;;;;;4.03;3.63;;;20.20;99.90;;;;;;5064594;28;20033;-43
2023/08/24 02:19:41;;;;;;;3.75;3.30;;;20.20;99.90;;;;;;5051175;28;20028;-42
2023/08/24 02:22:08;;;;;;;5.65;3.85;;;20.20;99.90;;;;;;5047103;28;20389;-43
2023/08/24 02:24:33;;;;;;;4.63;3.60;;;20.20;99.90;;;;;;5057983;28;20028;-43
2023/08/24 02:27:00;;;;;;;3.97;3.55;;;20.20;99.90;;;;;;5046316;28;20620;-43
2023/08/24 02:29:25;;;;;;;8.05;3.60;;;20.20;99.90;;;;;;5058406;28;20135;-42
2023/08/24 02:31:51;;;;;;;6.00;4.07;;;20.30;99.90;;;;;;5046285;28;20029;-42
2023/08/24 02:34:17;;;;;;;5.20;3.70;;;20.20;99.90;;;;;;5057642;28;20100;-42
2023/08/24 02:36:42;;;;;;;3.95;3.55;;;20.30;99.90;;;;;;5047146;28;20057;-41
2023/08/24 02:39:08;;;;;;;5.97;3.45;;;20.30;99.90;;;;;;5055324;28;20127;-42
2023/08/24 02:41:35;;;;;;;4.40;3.50;;;20.30;99.90;;;;;;5048307;28;20032;-42
2023/08/24 02:44:01;;;;;;;4.85;3.47;;;20.30;99.90;;;;;;5052141;28;20051;-42
2023/08/24 02:46:27;;;;;;;3.75;3.30;;;20.30;99.90;;;;;;5052245;28;20028;-42
2023/08/24 02:48:52;;;;;;;4.43;3.47;;;20.30;99.90;;;;;;5049547;28;20747;-42
2023/08/24 02:51:21;;;;;;;6.00;3.88;;;20.30;99.90;;;;;;5053628;28;20076;-42
2023/08/24 02:53:47;;;;;;;4.93;3.85;;;20.30;99.90;;;;;;5048602;28;20048;-42
2023/08/24 02:56:12;;;;;;;4.53;3.80;;;20.30;99.90;;;;;;5054294;28;20021;-43
2023/08/24 02:58:38;;;;;;;5.03;4.15;;;20.30;99.90;;;;;;5046892;28;20075;-42
2023/08/24 03:01:07;;;;;;;4.07;3.50;;;20.30;99.90;;;;;;5056320;28;20117;-43
2023/08/24 03:03:36;;;;;;;5.15;3.70;;;20.30;99.90;;;;;;5045477;28;20021;-42
2023/08/24 03:06:06;;;;;;;5.38;3.80;;;20.30;99.90;;;;;;5050348;28;20495;-43
2023/08/24 03:08:34;;;;;;;4.20;3.80;;;20.30;99.90;;;;;;5063779;28;20083;-42
2023/08/24 03:11:01;;;;;;;4.53;3.53;;;20.30;99.90;;;;;;5044565;28;20028;-42
2023/08/24 03:13:27;;;;;;;4.70;3.83;;;20.30;99.90;;;;;;5045907;28;20033;-42
2023/08/24 03:15:53;;;;;;;4.65;3.67;;;20.20;99.90;;;;;;5050558;28;20028;-42
2023/08/24 03:18:19;;;;;;;6.82;4.13;;;20.30;99.90;;;;;;5064510;28;20033;-42
2023/08/24 03:20:46;;;;;;;5.88;4.22;;;20.20;99.90;;;;;;5052492;28;20029;-42
2023/08/24 03:23:16;;;;;;;7.80;4.68;;;20.20;99.90;;;;;;5064171;28;20107;-42
2023/08/24 03:25:43;;;;;;;6.85;4.57;;;20.20;99.90;;;;;;5056392;28;20021;-42
2023/08/24 03:28:09;;;;;;;5.93;4.90;;;20.10;99.90;;;;;;5062391;28;20059;-42
2023/08/24 03:30:36;;;;;;;5.88;4.32;;;20.10;99.90;;;;;;5058324;28;20025;-42
2023/08/24 03:33:05;;;;;;;5.10;4.53;;;20.00;99.90;;;;;;5059732;28;20024;-42
2023/08/24 03:35:33;;;;;;;4.50;3.97;;;20.00;99.90;;;;;;5059914;28;20499;-42
2023/08/24 03:37:59;;;;;;;8.50;4.53;;;19.90;99.90;;;;;;5057227;28;20133;-42
2023/08/24 03:40:25;;;;;;;5.07;4.32;;;19.90;99.90;;;;;;5061688;28;20551;-42
2023/08/24 03:43:03;;;;;;;4.63;4.22;;;19.90;99.90;;;;;;5055460;28;20028;-42
2023/08/24 03:45:32;;;;;;;4.70;3.92;;;19.80;99.90;;;;;;5062341;28;20032;-43
2023/08/24 03:47:57;;;;;;;4.35;3.60;;;19.80;99.90;;;;;;5054677;28;20111;-42
2023/08/24 03:50:23;;;;;;;5.38;4.05;;;19.80;99.90;;;;;;5063242;28;20133;-42
2023/08/24 03:52:50;;;;;;;4.80;4.30;;;19.70;99.90;;;;;;5053509;28;20017;-42
2023/08/24 03:55:16;;;;;;;6.03;4.32;;;19.70;99.90;;;;;;5063296;28;20917;-43
2023/08/24 03:57:42;;;;;;;6.00;4.72;;;19.70;99.90;;;;;;5052563;28;20048;-44
2023/08/24 04:00:11;;;;;;;6.78;4.80;;;19.70;99.90;;;;;;5064792;28;20483;-43
2023/08/24 04:02:43;;;;;;;5.57;4.50;;;19.70;99.90;;;;;;5052637;28;20108;-41
2023/08/24 04:05:09;;;;;;;4.93;4.13;;;19.70;99.90;;;;;;5063198;28;20028;-42
2023/08/24 04:07:37;;;;;;;5.47;4.25;;;19.70;99.90;;;;;;5051007;28;20032;-42
2023/08/24 04:10:04;;;;;;;6.95;4.38;;;19.60;99.90;;;;;;5063289;28;20111;-43
2023/08/24 04:12:33;;;;;;;5.50;4.60;;;19.60;99.90;;;;;;5051390;28;20107;-42
2023/08/24 04:14:59;;;;;;;4.55;4.13;;;19.60;99.90;;;;;;5063363;28;20059;-42
2023/08/24 04:17:25;;;;;;;5.20;4.22;;;19.60;99.90;;;;;;5054540;28;20532;-43
2023/08/24 04:19:50;;;;;;;5.03;4.20;;;19.60;99.90;;;;;;5056472;28;20035;-42
2023/08/24 04:22:16;;;;;;;5.45;4.60;;;19.60;99.90;;;;;;5050429;28;20024;-43
2023/08/24 04:24:42;;;;;;;6.30;4.43;;;19.60;99.90;;;;;;5050411;28;20058;-42
2023/08/24 04:27:11;;;;;;;6.63;5.03;;;19.60;99.90;;;;;;5047063;28;20396;-43
2023/08/24 04:29:36;;;;;;;5.35;4.30;;;19.60;99.90;;;;;;5052049;28;20036;-43
2023/08/24 04:32:02;;;;;;;8.43;4.65;;;19.50;99.90;;;;;;5045137;28;20035;-43
2023/08/24 04:34:28;;;;;;;7.50;4.63;;;19.50;99.90;;;;;;5053502;28;20033;-43
2023/08/24 04:36:54;;;;;;;5.68;5.07;;;19.50;99.90;;;;;;5045300;28;20024;-43
2023/08/24 04:39:20;;;;;;;5.28;4.55;;;19.50;99.90;;;;;;5055423;28;20036;-43
2023/08/24 04:41:45;;;;;;;7.72;5.18;;;19.50;99.90;;;;;;5044071;28;20025;-41
2023/08/24 04:44:11;;;;;;;7.72;5.00;;;19.50;99.90;;;;;;5055540;28;20508;-43
2023/08/24 04:46:36;;;;;;;5.80;4.97;;;19.50;99.90;;;;;;5043848;28;20087;-43
2023/08/24 04:49:03;;;;;;;5.70;4.70;;;19.50;99.90;;;;;;5054845;28;20537;-41
2023/08/24 04:51:29;;;;;;;7.18;4.90;;;19.40;99.90;;;;;;5044112;28;20028;-42
2023/08/24 04:53:54;;;;;;;6.68;5.00;;;19.40;99.90;;;;;;5055421;28;20023;-42
2023/08/24 04:56:20;;;;;;;5.82;4.75;;;19.40;99.90;;;;;;5043159;28;20172;-42
2023/08/24 04:58:56;;;;;;;5.20;4.45;;;19.40;99.90;;;;;;5052253;28;20059;-42
2023/08/24 05:01:23;;;;;;;4.28;3.88;;;19.40;99.90;;;;;;5045295;28;20029;-42
2023/08/24 05:03:48;;;;;;;5.43;4.15;;;19.40;99.90;;;;;;5051885;28;20123;-42
2023/08/24 05:06:16;;;;;;;5.05;4.55;;;19.40;99.90;;;;;;5048394;28;20035;-43
2023/08/24 05:08:42;;;;;;;7.55;5.30;;;19.40;99.90;;;;;;5048733;28;20027;-42
2023/08/24 05:11:18;;;;;;;5.20;4.70;;;19.40;99.90;;;;;;5050003;28;20029;-42
2023/08/24 05:13:44;;;;;;;6.88;4.90;;;19.40;99.90;;;;;;5046822;28;20012;-42
2023/08/24 05:16:11;;;;;;;6.75;5.30;;;19.30;99.90;;;;;;5049122;28;20032;-42
2023/08/24 05:18:40;;;;;;;5.10;4.60;;;19.40;99.90;;;;;;5045015;28;20021;-42
2023/08/24 05:21:06;;;;;;;6.03;4.43;;;19.40;99.90;;;;;;5049794;28;20033;-42
2023/08/24 05:23:32;;;;;;;5.05;4.47;;;19.40;99.90;;;;;;5043816;28;20028;-42
2023/08/24 05:26:05;;;;;;;4.95;4.28;;;19.40;99.90;;;;;;5054656;28;20601;-41
2023/08/24 05:28:34;;;;;;;4.93;4.43;;;19.50;99.90;;;;;;5045016;28;20041;-42
2023/08/24 05:31:03;;;;;;;5.85;4.43;;;19.50;99.90;;;;;;5059023;28;20062;-42
2023/08/24 05:33:40;;;;;;;5.78;5.00;;;19.50;99.90;;;;;;5067647;28;20028;-42
2023/08/24 05:36:06;;;;;;;4.72;4.32;;;19.50;99.90;;;;;;5063304;28;20036;-42
2023/08/24 05:38:32;;;;;;;5.68;4.88;;;19.50;99.90;;;;;;5066788;28;20029;-42
2023/08/24 05:41:03;;;;;;;5.38;4.50;;;19.50;99.90;;;;;;5053708;28;20116;-43
2023/08/24 05:43:29;;;;;;;5.75;5.15;;;19.60;99.90;;;;;;5066918;28;20021;-42
2023/08/24 05:45:56;;;;;;;7.45;5.80;;;19.60;99.90;;;;;;5054274;28;20029;-42
2023/08/24 05:48:21;;;;;;;6.45;5.85;;;19.60;99.90;;;;;;5067353;28;20020;-43
2023/08/24 05:50:47;;;;;;;5.55;5.03;;;19.60;99.90;;;;;;5054807;28;20043;-43
2023/08/24 05:53:13;;;;;;;7.05;5.38;;;19.70;99.90;;;;;;5066064;28;20028;-44
2023/08/24 05:55:39;;;;;;;6.15;4.40;;;19.60;99.90;;;;;;5058335;28;20040;-42
2023/08/24 05:58:05;;;;;;;6.18;5.20;;;19.60;99.90;;;;;;5060548;28;20048;-43
2023/08/24 06:00:31;;;;;;;9.55;5.30;;;19.70;99.90;;;;;;5058805;28;20051;-43
2023/08/24 06:02:56;;;;;;;5.95;4.88;;;19.70;99.90;;;;;;5060341;28;20107;-43
2023/08/24 06:05:22;;;;;;;6.20;5.05;;;19.70;99.90;;;;;;5061860;28;20032;-42
2023/08/24 06:07:48;;;;;;;7.13;5.65;;;19.70;99.90;;;;;;5058189;28;20047;-43
2023/08/24 06:10:14;;;;;;;6.20;5.32;;;19.70;99.90;;;;;;5064426;28;20472;-43
2023/08/24 06:12:39;;;;;;;6.85;5.38;;;19.80;99.90;;;;;;5054041;28;20056;-43
2023/08/24 06:15:09;;;;;;;7.00;5.57;;;19.80;99.90;;;;;;5064146;28;20029;-43
2023/08/24 06:17:35;;;;;;;6.60;5.53;;;19.80;99.90;;;;;;5055110;28;20012;-44
2023/08/24 06:20:10;;;;;;;8.18;6.18;;;19.80;99.90;;;;;;5062602;28;20043;-44
2023/08/24 06:22:35;;;;;;;8.07;6.20;;;19.90;99.90;;;;;;5061401;28;20283;-42
2023/08/24 06:25:01;;;;;;;10.15;6.20;;;19.80;99.90;;;;;;5064852;28;20480;-43
2023/08/24 06:27:27;;;;;;;6.95;6.25;;;19.80;99.90;;;;;;5051874;28;20020;-43
2023/08/24 06:29:52;;;;;;;7.50;6.18;;;19.90;99.90;;;;;;5064752;28;20581;-42
2023/08/24 06:32:18;;;;;;;6.88;6.03;;;19.90;99.90;;;;;;5052551;28;20707;-42
2023/08/24 06:34:44;;;;;;;7.15;5.93;;;19.90;99.90;;;;;;5064899;28;20107;-42
2023/08/24 06:37:12;;;;;;;6.15;5.47;;;20.00;99.90;;;;;;5054271;28;20534;-42
2023/08/24 06:39:38;;;;;;;6.53;5.00;;;20.00;99.90;;;;;;5063892;28;20102;-44
2023/08/24 06:42:04;;;;;;;5.80;5.20;;;20.00;99.90;;;;;;5057647;28;20419;-43
2023/08/24 06:44:29;;;;;;;5.82;5.22;;;20.10;99.90;;;;;;5061162;28;20400;-44
2023/08/24 06:46:55;;;;;;;6.35;5.47;;;20.10;99.90;;;;;;5059775;28;20416;-41
2023/08/24 06:49:23;;;;;;;5.68;4.95;;;20.10;99.90;;;;;;5057355;28;20032;-43
2023/08/24 06:51:49;;;;;;;4.78;4.22;;;20.20;99.90;;;;;;5063383;28;20013;-43
2023/08/24 06:54:15;;;;;;;5.75;4.45;;;20.20;99.90;;;;;;5055379;28;20570;-43
2023/08/24 06:56:44;;;;;;;6.00;4.90;;;20.30;99.90;;;;;;5064578;28;20037;-47
2023/08/24 06:59:13;;;;;;;8.20;5.80;;;20.30;99.90;;;;;;5052270;28;20527;-43
2023/08/24 07:01:41;;;;;;;5.20;4.70;;;20.30;99.90;;;;;;5046822;28;20021;-43
2023/08/24 07:04:07;;;;;;;5.22;4.60;;;20.40;99.90;;;;;;5055519;28;20029;-42
2023/08/24 07:06:36;;;;;;;4.43;4.03;;;20.40;99.90;;;;;;5045900;28;20032;-43
2023/08/24 07:09:07;;;;;;;5.03;4.53;;;20.50;99.90;;;;;;5051788;28;20507;-43
2023/08/24 07:11:32;;;;;;;6.75;5.03;;;20.60;99.90;;;;;;5066172;28;20024;-43
2023/08/24 07:13:58;;;;;;;6.00;5.38;;;20.60;99.90;;;;;;5052051;28;20495;-44
2023/08/24 07:16:23;;;;;;;6.00;5.30;;;20.60;99.90;;;;;;5064828;28;20484;-43
2023/08/24 07:18:49;;;;;;;8.30;5.78;;;20.60;99.90;;;;;;5052995;28;20033;-43
2023/08/24 07:21:16;;;;;;;6.97;5.05;;;20.70;99.90;;;;;;5053078;28;20025;-43
2023/08/24 07:23:44;;;;;;;5.78;5.18;;;20.70;99.90;;;;;;5054841;28;20029;-43
2023/08/24 07:26:10;;;;;;;5.72;4.80;;;20.80;99.90;;;;;;5047376;28;20067;-42
2023/08/24 07:28:36;;;;;;;8.15;5.35;;;20.80;99.90;;;;;;5052707;28;20045;-43
2023/08/24 07:31:10;;;;;;;8.55;5.72;;;20.90;99.90;;;;;;5047777;28;20736;-44
2023/08/24 07:33:37;;;;;;;4.82;3.67;;;20.90;99.90;;;;;;5045295;28;20032;-43
2023/08/24 07:36:05;;;;;;;3.70;3.40;;;20.90;99.90;;;;;;5056678;28;20358;-42
2023/08/24 07:38:31;;;;;;;5.88;4.55;;;21.00;99.90;;;;;;5060408;28;20039;-43
2023/08/24 07:40:58;;;;;;;6.00;4.32;;;21.10;99.90;;;;;;5055967;28;20017;-43
2023/08/24 07:43:24;;;;;;;5.03;4.50;;;21.10;99.90;;;;;;5062261;28;20032;-42
2023/08/24 07:45:50;;;;;;;4.85;4.30;;;21.20;99.90;;;;;;5054115;28;20043;-42
2023/08/24 07:48:15;;;;;;;3.67;3.38;;;21.20;99.90;;;;;;5062587;28;20063;-44
2023/08/24 07:50:41;;;;;;;4.32;3.88;;;21.30;99.90;;;;;;5053019;28;20105;-43
2023/08/24 07:53:06;;;;;;;6.45;4.35;;;21.30;99.90;;;;;;5063327;28;20021;-44
2023/08/24 07:55:35;;;;;;;4.75;4.25;;;21.40;99.90;;;;;;5051648;28;20158;-43
2023/08/24 07:58:00;;;;;;;4.90;4.40;;;21.40;99.90;;;;;;5063134;28;20056;-43
2023/08/24 08:00:26;;;;;;;5.53;4.40;;;21.50;99.90;;;;;;5052082;28;20082;-44
2023/08/24 08:02:52;;;;;;;6.30;3.65;;;21.50;99.90;;;;;;5065396;28;20021;-44
2023/08/24 08:05:21;;;;;;;5.00;3.83;;;21.60;99.90;;;;;;5052443;28;20025;-44
2023/08/24 08:07:53;;;;;;;4.30;3.38;;;21.70;99.90;;;;;;5064165;28;20035;-43
2023/08/24 08:10:20;;;;;;;3.80;3.30;;;21.70;99.90;;;;;;5053267;28;20037;-43
2023/08/24 08:12:46;;;;;;;3.83;3.33;;;21.80;99.90;;;;;;5061288;28;20469;-43
2023/08/24 08:15:12;;;;;;;4.00;3.60;;;21.90;99.90;;;;;;5055870;28;20025;-43
2023/08/24 08:17:37;;;;;;;4.47;3.22;;;22.00;99.90;;;;;;5060807;28;20052;-43
2023/08/24 08:20:04;;;;;;;4.60;4.05;;;22.10;99.90;;;;;;5059099;28;20577;-44
2023/08/24 08:22:29;;;;;;;4.15;3.75;;;22.20;99.90;;;;;;5064815;28;20470;-43
2023/08/24 08:24:56;;;;;;;3.80;3.22;;;22.30;99.90;;;;;;5058738;28;20025;-43
2023/08/24 08:27:22;;;;;;;5.65;3.95;;;22.40;99.90;;;;;;5053360;28;20109;-43
2023/08/24 08:29:50;;;;;;;3.90;3.28;;;22.50;99.90;;;;;;5046226;28;20032;-42
2023/08/24 08:32:16;;;;;;;4.32;3.92;;;22.60;99.90;;;;;;5054279;28;20029;-42
2023/08/24 08:34:41;;;;;;;4.50;3.83;;;22.70;99.90;;;;;;5044652;28;20029;-42
2023/08/24 08:37:09;;;;;;;4.32;3.00;;;22.80;99.90;;;;;;5053964;28;20025;-42
2023/08/24 08:39:35;;;;;;;5.55;3.90;;;22.90;99.90;;;;;;5042764;28;20032;-44
2023/08/24 08:42:01;;;;;;;4.07;3.70;;;23.00;99.90;;;;;;5054435;28;20032;-44
2023/08/24 08:44:31;;;;;;;5.93;4.35;;;23.10;99.90;;;;;;5043556;28;20029;-43
2023/08/24 08:47:00;;;;;;;5.28;3.70;;;23.20;99.90;;;;;;5055385;28;20172;-43
2023/08/24 08:49:31;;;;;;;6.07;4.57;;;23.20;99.90;;;;;;5043695;28;20077;-43
2023/08/24 08:51:56;;;;;;;4.80;4.32;;;23.30;99.90;;;;;;5055694;28;20043;-45
2023/08/24 08:54:22;;;;;;;4.90;4.25;;;23.40;99.90;;;;;;5043537;28;20032;-43
2023/08/24 08:56:48;;;;;;;4.88;4.32;;;23.50;99.90;;;;;;5053376;28;20045;-41
2023/08/24 08:59:15;;;;;;;4.63;4.20;;;23.50;99.90;;;;;;5045730;28;20808;-42
2023/08/24 09:01:41;;;;;;;4.65;4.05;;;23.60;99.90;;;;;;5050225;28;20073;-43
2023/08/24 09:04:07;;;;;;;6.80;4.30;;;23.70;99.90;;;;;;5048451;28;20025;-43
2023/08/24 09:06:33;;;;;;;5.18;4.35;;;23.70;99.90;;;;;;5047728;28;20043;-43
2023/08/24 09:09:00;;;;;;;5.00;4.32;;;23.80;99.90;;;;;;5050332;28;20432;-42
2023/08/24 09:11:26;;;;;;;5.00;4.10;;;23.90;99.90;;;;;;5045672;28;20100;-44
2023/08/24 09:13:57;;;;;;;9.20;6.28;;;23.90;99.90;;;;;;5053469;28;20100;-43
2023/08/24 09:16:31;;;;;;;7.22;6.25;;;24.00;99.90;;;;;;5044420;28;20028;-43
2023/08/24 09:18:59;;;;;;;6.75;5.75;;;24.00;99.90;;;;;;5043296;28;20032;-44
2023/08/24 09:21:25;;;;;;;6.20;4.72;;;24.00;99.90;;;;;;5044703;28;20033;-43
2023/08/24 09:23:55;;;;;;;4.00;3.30;;;24.00;99.90;;;;;;5052990;28;20070;-42
2023/08/24 09:26:36;;;;;;;4.05;3.42;;;24.00;99.90;;;;;;5061655;28;20033;-43
2023/08/24 09:29:14;;;;;;;5.03;4.53;;;24.00;99.90;;;;;;5053480;28;20090;-42
2023/08/24 09:31:40;;;;;;;5.50;4.15;;;24.10;99.90;;;;;;5045570;28;20054;-42
2023/08/24 09:34:07;;;;;;;4.70;4.13;;;24.10;99.90;;;;;;5054538;28;20052;-42
2023/08/24 09:36:34;;;;;;;5.72;4.03;;;24.10;99.90;;;;;;5043800;28;20450;-43
2023/08/24 09:39:09;;;;;;;3.90;3.50;;;24.10;99.90;;;;;;5053435;28;20184;-42
2023/08/24 09:41:45;;;;;;;5.00;3.08;;;24.10;99.90;;;;;;5043464;28;20806;-42
2023/08/24 09:44:14;;;;;;;4.80;4.03;;;24.20;99.90;;;;;;5049914;28;20047;-44
2023/08/24 09:46:40;;;;;;;5.32;4.10;;;24.20;99.90;;;;;;5062652;28;20028;-43
2023/08/24 09:49:07;;;;;;;4.97;4.07;;;24.20;99.90;;;;;;5048260;28;20409;-42
2023/08/24 09:51:34;;;;;;;4.63;3.55;;;24.30;99.90;;;;;;5061580;28;20020;-42
2023/08/24 09:54:05;;;;;;;3.60;3.25;;;24.40;99.90;;;;;;5049725;28;20357;-43
2023/08/24 09:56:41;;;;;;;3.90;3.47;;;24.40;99.90;;;;;;5042177;28;20049;-44
2023/08/24 09:59:18;;;;;;;5.47;3.67;;;24.50;99.90;;;;;;5047228;28;20124;-44
2023/08/24 10:01:51;;;;;;;5.57;3.72;;;24.60;99.90;;;;;;5043240;28;20465;-43
2023/08/24 10:04:24;;;;;;;4.03;3.05;;;24.60;99.90;;;;;;5046005;28;20157;-44
2023/08/24 10:07:05;;;;;;;5.35;3.05;;;24.70;99.90;;;;;;5043806;28;20571;-44
2023/08/24 10:09:59;;;;;;;4.57;3.22;;;24.90;99.90;;;;;;5046607;28;20033;-44
2023/08/24 10:12:27;;;;;;;3.50;2.85;;;24.90;99.90;;;;;;5042702;28;20496;-42
2023/08/24 10:15:03;;;;;;;4.88;3.20;;;25.10;99.90;;;;;;5055200;28;20024;-44
2023/08/24 10:17:32;;;;;;;3.80;2.97;;;25.20;99.90;;;;;;5045234;28;20043;-44
2023/08/24 10:20:06;;;;;;;3.50;2.85;;;25.20;99.90;;;;;;5059236;28;20070;-43
2023/08/24 10:22:34;;;;;;;3.83;3.08;;;25.20;99.90;;;;;;5048105;28;20031;-43
2023/08/24 10:25:00;;;;;;;3.28;2.92;;;25.20;99.90;;;;;;5046495;28;20021;-43
2023/08/24 10:27:28;;;;;;;2.92;2.38;;;25.30;99.90;;;;;;5066466;28;20252;-42
2023/08/24 10:29:53;;;;;;;3.22;2.92;;;25.30;99.90;;;;;;5056490;28;20094;-42
2023/08/24 10:32:23;;;;;;;3.22;2.67;;;25.30;99.90;;;;;;5062903;28;20818;-41
2023/08/24 10:34:50;;;;;;;3.40;3.03;;;25.40;99.90;;;;;;5059084;28;20126;-43
2023/08/24 10:37:15;;;;;;;4.78;3.75;;;25.40;99.90;;;;;;5060947;28;20484;-42
2023/08/24 10:39:45;;;;;;;4.13;3.38;;;25.40;99.90;;;;;;5060544;28;20044;-42
2023/08/24 10:42:12;;;;;;;5.20;3.58;;;25.30;99.90;;;;;;5059382;28;20056;-43
2023/08/24 10:44:39;;;;;;;4.35;3.50;;;25.20;99.90;;;;;;5062884;28;20027;-43
2023/08/24 10:47:33;;;;;;;6.13;3.90;;;25.20;99.90;;;;;;5055610;28;20028;-43
2023/08/24 10:50:02;;;;;;;3.97;3.40;;;25.10;99.90;;;;;;5061721;28;20024;-42
2023/08/24 10:52:40;;;;;;;5.13;3.90;;;25.00;99.90;;;;;;5058666;28;20761;-43
2023/08/24 10:55:23;;;;;;;4.80;3.70;;;24.90;99.90;;;;;;5059806;28;20124;-43
2023/08/24 10:57:59;;;;;;;4.85;3.28;;;24.80;99.90;;;;;;5059037;28;20063;-43
2023/08/24 11:00:30;;;;;;;4.47;3.53;;;24.80;99.90;;;;;;5058945;28;20032;-43
2023/08/24 11:02:58;;;;;;;3.97;3.60;;;24.70;99.90;;;;;;5058570;28;20498;-42
2023/08/24 11:05:28;;;;;;;4.63;3.30;;;24.70;99.90;;;;;;5060912;28;20024;-42
2023/08/24 11:08:04;;;;;;;4.18;3.28;;;24.70;99.90;;;;;;5057506;28;20028;-43
2023/08/24 11:10:42;;;;;;;4.07;3.38;;;24.70;99.90;;;;;;5062205;28;20036;-43
2023/08/24 11:13:22;;;;;;;3.90;3.47;;;24.70;99.90;;;;;;5057837;28;20122;-42
2023/08/24 11:15:57;;;;;;;4.07;3.65;;;24.70;99.90;;;;;;5060924;28;20358;-44
2023/08/24 11:18:24;;;;;;;4.05;3.50;;;24.70;99.90;;;;;;5058760;28;20032;-43
2023/08/24 11:21:11;;;;;;;4.68;3.10;;;24.70;99.90;;;;;;5062537;28;20431;-42
2023/08/24 11:23:37;;;;;;;4.78;3.25;;;24.70;99.90;;;;;;5059632;28;20052;-43
2023/08/24 11:26:03;;;;;;;4.28;3.13;;;24.80;99.90;;;;;;5062235;28;20028;-43
2023/08/24 11:28:30;;;;;;;4.22;3.38;;;24.80;99.90;;;;;;5054904;28;20034;-44
2023/08/24 11:30:57;;;;;;;4.95;3.30;;;24.80;99.90;;;;;;5064121;28;20032;-42
2023/08/24 11:33:30;;;;;;;4.95;3.70;;;24.80;99.90;;;;;;5054213;28;20027;-44
2023/08/24 11:35:56;;;;;;;4.93;3.40;;;24.80;99.90;;;;;;5063769;28;20048;-45
2023/08/24 11:38:22;;;;;;;5.25;3.05;;;24.80;99.90;;;;;;5053341;28;20117;-44
2023/08/24 11:40:48;;;;;;;3.65;2.92;;;24.90;99.90;;;;;;5064559;28;20793;-46
2023/08/24 11:43:25;;;;;;;3.88;3.00;;;25.00;99.90;;;;;;5052300;28;20064;-44
2023/08/24 11:45:50;;;;;;;3.88;3.42;;;25.10;99.90;;;;;;5065420;28;20074;-44
2023/08/24 11:48:16;;;;;;;5.50;3.45;;;25.10;99.90;;;;;;5051847;28;20568;-42
2023/08/24 11:50:42;;;;;;;7.75;4.25;;;25.20;99.90;;;;;;5064975;28;20487;-42
2023/08/24 11:53:07;;;;;;;6.53;5.32;;;25.20;99.90;;;;;;5051263;28;20052;-42
2023/08/24 11:55:33;;;;;;;8.45;4.80;;;25.20;99.90;;;;;;5064983;28;20063;-42
2023/08/24 11:58:00;;;;;;;4.85;4.13;;;25.20;99.90;;;;;;5053138;28;20045;-42
2023/08/24 12:00:26;;;;;;;5.47;4.05;;;25.20;99.90;;;;;;5063891;28;20025;-43
2023/08/24 12:02:52;;;;;;;4.20;3.80;;;25.20;99.90;;;;;;5055981;28;20047;-43
2023/08/24 12:05:26;;;;;;;4.18;3.33;;;25.30;99.90;;;;;;5058569;28;20376;-44
2023/08/24 12:07:53;;;;;;;3.97;3.42;;;25.40;99.90;;;;;;5056453;28;20405;-43
2023/08/24 12:10:19;;;;;;;4.75;3.35;;;25.40;99.90;;;;;;5057504;28;20075;-43
2023/08/24 12:12:45;;;;;;;4.75;2.92;;;25.50;99.90;;;;;;5059833;28;20090;-42
2023/08/24 12:15:20;;;;;;;3.33;2.90;;;25.50;99.90;;;;;;5056357;28;20032;-43
2023/08/24 12:17:48;;;;;;;3.70;3.28;;;25.50;99.90;;;;;;5060440;28;20016;-43
2023/08/24 12:20:23;;;;;;;4.15;3.03;;;25.60;99.90;;;;;;5054734;28;20032;-42
2023/08/24 12:22:52;;;;;;;4.13;3.15;;;25.70;99.90;;;;;;5048154;28;20024;-42
2023/08/24 12:25:18;;;;;;;5.60;4.25;;;25.70;99.90;;;;;;5053272;28;20024;-43
2023/08/24 12:27:44;;;;;;;8.48;4.53;;;25.70;99.90;;;;;;5062927;28;20024;-44
2023/08/24 12:30:11;;;;;;;5.85;4.22;;;25.70;99.90;;;;;;5051216;28;20032;-43
2023/08/24 12:32:50;;;;;;;4.15;3.75;;;25.70;99.90;;;;;;5062502;28;20115;-43
2023/08/24 12:35:17;;;;;;;8.32;5.38;;;25.70;99.90;;;;;;5052155;28;20029;-41
2023/08/24 12:37:43;;;;;;;8.02;5.10;;;25.80;99.90;;;;;;5063033;28;20079;-42
2023/08/24 12:40:09;;;;;;;5.50;4.53;;;25.80;99.90;;;;;;5050888;28;20791;-43
2023/08/24 12:42:35;;;;;;;5.47;4.85;;;25.80;99.90;;;;;;5064599;28;20025;-42
2023/08/24 12:45:00;;;;;;;6.13;4.53;;;25.80;99.90;;;;;;5050444;28;20490;-42
2023/08/24 12:47:29;;;;;;;7.75;4.43;;;25.80;99.90;;;;;;5063649;28;20580;-42
2023/08/24 12:49:55;;;;;;;5.47;4.15;;;25.70;99.90;;;;;;5050989;28;20051;-43
2023/08/24 12:52:22;;;;;;;5.43;4.60;;;25.70;99.90;;;;;;5042965;28;20029;-43